Time;durP1;ratioP1;P1;durP2;ratioP2;P2;SDS_P1;SDS_P2;PMS_P1;PMS_P2;Temp;Humidity;BMP_temperature;BMP_pressure;BME280_temperature;BME280_humidity;BME280_pressure;Samples;Min_cycle;Max_cycle;Signal;HPM_P1;HPM_P2
2023/07/09 00:00:40;;;;;;;3.45;1.60;;;;;;;21.80;100.00;98688.13;15276669;19;20545;-46
2023/07/09 00:06:08;;;;;;;1.85;1.52;;;;;;;21.65;100.00;98682.16;15275391;19;20022;-46
2023/07/09 00:11:33;;;;;;;2.70;1.60;;;;;;;21.58;98.93;98684.94;15274251;19;20419;-46
2023/07/09 00:17:04;;;;;;;2.17;1.70;;;;;;;21.54;98.27;98681.81;15269906;19;20373;-47
2023/07/09 00:22:31;;;;;;;3.92;1.60;;;;;;;21.46;100.00;98676.63;15265170;19;20014;-48
2023/07/09 00:27:57;;;;;;;3.00;1.60;;;;;;;21.37;100.00;98680.72;15273161;19;20041;-46
2023/07/09 00:33:27;;;;;;;1.60;1.50;;;;;;;21.30;100.00;98677.22;15269394;19;20038;-51
2023/07/09 00:39:04;;;;;;;2.58;1.60;;;;;;;21.20;100.00;98681.31;15274828;19;20018;-51
2023/07/09 00:44:32;;;;;;;2.20;1.50;;;;;;;21.13;100.00;98688.72;15268776;19;20010;-51
2023/07/09 00:49:57;;;;;;;1.60;1.42;;;;;;;21.05;100.00;98680.78;15273825;19;20018;-50
2023/07/09 00:55:27;;;;;;;2.40;1.60;;;;;;;20.97;100.00;98678.34;15267062;19;20372;-49
2023/07/09 01:00:55;;;;;;;3.00;1.77;;;;;;;20.86;100.00;98688.09;15270693;19;20011;-49
2023/07/09 01:06:38;;;;;;;3.33;1.70;;;;;;;20.72;100.00;98690.91;15270105;19;20022;-50
2023/07/09 01:12:08;;;;;;;1.77;1.60;;;;;;;20.58;100.00;98689.31;15267269;19;20025;-52
2023/07/09 01:17:40;;;;;;;4.22;1.50;;;;;;;20.47;100.00;98688.13;15268523;19;20073;-50
2023/07/09 01:23:08;;;;;;;3.50;1.90;;;;;;;20.28;100.00;98695.38;15266567;19;20014;-47
2023/07/09 01:28:33;;;;;;;1.90;1.70;;;;;;;20.19;100.00;98693.94;15265889;19;20078;-48
2023/07/09 01:33:58;;;;;;;1.95;1.77;;;;;;;20.14;100.00;98695.41;15264136;19;20030;-47
2023/07/09 01:39:25;;;;;;;1.88;1.77;;;;;;;20.10;100.00;98687.88;15268663;19;20014;-48
2023/07/09 01:44:50;;;;;;;3.35;1.80;;;;;;;20.07;100.00;98689.16;15263628;19;20091;-50
2023/07/09 01:50:16;;;;;;;3.75;1.55;;;;;;;20.07;100.00;98696.50;15267621;19;20018;-49
2023/07/09 01:55:43;;;;;;;2.75;1.88;;;;;;;20.05;100.00;98693.16;15263935;19;20015;-50
2023/07/09 02:01:09;;;;;;;3.45;1.75;;;;;;;20.00;100.00;98689.19;15260893;19;20531;-47
2023/07/09 02:06:34;;;;;;;4.00;1.80;;;;;;;19.96;100.00;98693.38;15262904;19;20015;-49
2023/07/09 02:12:02;;;;;;;4.13;2.00;;;;;;;19.91;100.00;98693.22;15264608;19;20638;-49
2023/07/09 02:17:33;;;;;;;3.60;2.00;;;;;;;19.88;100.00;98700.97;15268918;19;20014;-86
2023/07/09 02:22:58;;;;;;;3.40;2.00;;;;;;;19.84;100.00;98693.19;15283177;19;20124;-86
2023/07/09 02:28:25;;;;;;;2.30;1.88;;;;;;;19.82;100.00;98698.03;15293836;19;20018;-85
2023/07/09 02:33:50;;;;;;;4.35;1.85;;;;;;;19.77;100.00;98695.09;15296860;19;20018;-87
2023/07/09 02:39:15;;;;;;;2.33;1.92;;;;;;;19.73;100.00;98698.47;15299164;19;20014;-86
2023/07/09 02:44:44;;;;;;;3.25;1.70;;;;;;;19.66;100.00;98693.00;15305910;19;20250;-87
2023/07/09 02:50:11;;;;;;;2.00;1.83;;;;;;;19.60;100.00;98688.41;15306864;19;20352;-87
2023/07/09 02:55:36;;;;;;;2.17;1.92;;;;;;;19.56;100.00;98698.94;15299824;19;20014;-86
2023/07/09 03:01:04;;;;;;;2.38;1.83;;;;;;;19.51;100.00;98696.84;15306755;19;20038;-85
2023/07/09 03:06:32;;;;;;;2.13;1.92;;;;;;;19.49;100.00;98703.56;15301679;19;20015;-86
2023/07/09 03:11:56;;;;;;;4.03;2.00;;;;;;;19.46;100.00;98704.00;15310443;19;20035;-86
2023/07/09 03:17:24;;;;;;;2.22;1.98;;;;;;;19.39;100.00;98709.47;15308382;19;20092;-86
2023/07/09 03:22:48;;;;;;;1.80;1.60;;;;;;;19.31;100.00;98710.53;15314196;19;20006;-86
2023/07/09 03:28:18;;;;;;;2.28;2.00;;;;;;;19.27;100.00;98720.19;15366180;19;20021;-86
2023/07/09 03:33:37;;;;;;;5.13;2.08;;;;;;;19.20;100.00;98722.09;15340287;19;20003;-85
2023/07/09 03:39:02;;;;;;;2.90;1.83;;;;;;;19.15;100.00;98727.31;15307254;19;20018;-85
2023/07/09 03:44:26;;;;;;;2.97;1.90;;;;;;;19.07;100.00;98721.03;15306963;19;20019;-87
2023/07/09 03:49:55;;;;;;;3.38;1.80;;;;;;;19.03;100.00;98727.94;15314484;19;20014;-85
2023/07/09 03:55:19;;;;;;;2.42;2.00;;;;;;;19.00;100.00;98722.91;15312407;19;20490;-85
2023/07/09 04:00:45;;;;;;;3.00;1.90;;;;;;;18.99;100.00;98713.06;15319568;19;20018;-85
2023/07/09 04:06:13;;;;;;;2.35;2.10;;;;;;;18.99;100.00;98720.41;15299481;19;20011;-84
2023/07/09 04:11:38;;;;;;;2.33;2.13;;;;;;;18.99;100.00;98715.78;15295710;19;20025;-85
2023/07/09 04:17:09;;;;;;;2.42;2.00;;;;;;;19.00;100.00;98722.91;15295714;19;20035;-85
2023/07/09 04:22:37;;;;;;;2.25;2.05;;;;;;;19.03;100.00;98727.13;15299314;19;20074;-85
2023/07/09 04:28:03;;;;;;;4.15;2.00;;;;;;;19.05;100.00;98733.22;15291874;19;20078;-86
2023/07/09 04:33:30;;;;;;;2.80;2.10;;;;;;;19.08;100.00;98733.66;15303687;19;20015;-84
2023/07/09 04:38:57;;;;;;;2.05;1.85;;;;;;;19.13;100.00;98732.16;15306766;19;20039;-84
2023/07/09 04:44:22;;;;;;;3.95;2.10;;;;;;;19.17;100.00;98745.19;15298524;19;20018;-84
2023/07/09 04:49:50;;;;;;;2.28;2.08;;;;;;;19.23;100.00;98740.78;15304667;19;20014;-86
2023/07/09 04:55:19;;;;;;;3.17;1.98;;;;;;;19.29;100.00;98747.28;15317123;19;20015;-87
2023/07/09 05:00:45;;;;;;;4.03;2.20;;;;;;;19.34;100.00;98748.38;15314484;19;20014;-85
2023/07/09 05:06:10;;;;;;;3.67;2.10;;;;;;;19.46;100.00;98745.81;15305787;19;20022;-83
2023/07/09 05:11:38;;;;;;;2.30;2.10;;;;;;;19.54;100.00;98745.59;15300892;19;21012;-85
2023/07/09 05:17:09;;;;;;;2.47;2.05;;;;;;;19.66;100.00;98740.34;15296239;19;20006;-85
2023/07/09 05:22:35;;;;;;;3.22;2.08;;;;;;;19.79;100.00;98741.38;15300687;19;20035;-84
2023/07/09 05:28:03;;;;;;;3.13;2.00;;;;;;;19.89;100.00;98750.00;15297243;19;20018;-84
2023/07/09 05:33:31;;;;;;;2.65;2.00;;;;;;;20.02;100.00;98747.25;15308202;19;20011;-84
2023/07/09 05:38:56;;;;;;;2.47;2.15;;;;;;;20.16;100.00;98741.72;15304323;19;20019;-85
2023/07/09 05:44:24;;;;;;;3.50;2.10;;;;;;;20.32;100.00;98738.47;15309113;19;20011;-83
2023/07/09 05:50:03;;;;;;;2.40;2.20;;;;;;;20.47;100.00;98751.88;15329233;19;20011;-85
2023/07/09 05:55:41;;;;;;;3.13;2.08;;;;;;;20.64;100.00;98748.66;15334465;19;20003;-85
2023/07/09 06:01:09;;;;;;;1.95;1.80;;;;;;;20.80;100.00;98752.81;15322028;19;20018;-83
2023/07/09 06:06:34;;;;;;;2.67;2.13;;;;;;;20.95;100.00;98755.22;15301460;19;20756;-85
2023/07/09 06:12:00;;;;;;;2.58;2.10;;;;;;;21.12;100.00;98747.31;15310595;19;20048;-85
2023/07/09 06:17:35;;;;;;;1.75;1.65;;;;;;;21.30;100.00;98751.19;15328139;19;20015;-84
2023/07/09 06:23:02;;;;;;;2.70;1.95;;;;;;;21.45;100.00;98748.97;15336275;19;20015;-84
2023/07/09 06:28:30;;;;;;;2.42;1.85;;;;;;;21.63;100.00;98744.63;15319692;19;20032;-88
2023/07/09 06:33:58;;;;;;;2.78;2.00;;;;;;;21.82;100.00;98754.53;15328534;19;20055;-86
2023/07/09 06:39:23;;;;;;;3.75;2.00;;;;;;;21.99;100.00;98753.94;15322999;19;20017;-87
2023/07/09 06:44:48;;;;;;;3.10;1.70;;;;;;;22.16;100.00;98757.78;15355031;19;20019;-85
2023/07/09 06:50:17;;;;;;;2.10;1.80;;;;;;;22.34;100.00;98760.75;15330638;19;20042;-85
2023/07/09 06:55:43;;;;;;;6.68;1.90;;;;;;;22.53;100.00;98759.69;15314101;19;20018;-85
2023/07/09 07:01:10;;;;;;;2.97;1.70;;;;;;;22.71;100.00;98767.03;15316444;19;20014;-86
2023/07/09 07:06:41;;;;;;;1.90;1.75;;;;;;;22.93;100.00;98755.53;15334614;19;20018;-86
2023/07/09 07:12:07;;;;;;;1.95;1.77;;;;;;;23.12;100.00;98760.94;15355187;19;19998;-90
2023/07/09 07:17:38;;;;;;;1.80;1.70;;;;;;;23.32;100.00;98761.53;15328405;19;20017;-86
2023/07/09 07:23:06;;;;;;;3.67;1.70;;;;;;;23.55;100.00;98759.88;15350341;19;20014;-85
2023/07/09 07:28:31;;;;;;;3.58;1.85;;;;;;;23.75;100.00;98761.44;15311284;19;20039;-85
2023/07/09 07:34:02;;;;;;;3.40;1.77;;;;;;;23.97;100.00;98761.69;15331613;19;20026;-85
2023/07/09 07:39:30;;;;;;;;;;;;;;;24.24;100.00;98766.66;15330044;19;20022;-84
2023/07/09 07:44:58;;;;;;;2.40;1.80;;;;;;;24.42;100.00;98762.91;15337059;19;19946;-89
2023/07/09 07:50:31;;;;;;;2.00;1.80;;;;;;;24.63;100.00;98758.66;15325693;19;20023;-88
2023/07/09 07:55:56;;;;;;;3.35;1.70;;;;;;;24.90;100.00;98764.44;15324404;19;20027;-87
2023/07/09 08:06:52;;;;;;;2.08;1.50;;;;;;;25.35;99.98;98757.25;15358804;19;20010;-87
2023/07/09 08:12:27;;;;;;;;;;;;;;;25.64;93.78;98768.19;15379145;19;19999;-88
2023/07/09 08:17:53;;;;;;;1.88;1.50;;;;;;;25.89;93.35;98753.13;15344632;19;19910;-88
2023/07/09 08:23:20;;;;;;;1.90;1.55;;;;;;;26.24;87.52;98756.69;15312399;19;20406;-84
2023/07/09 08:28:45;;;;;;;2.38;1.50;;;;;;;26.48;85.79;98760.00;15315873;19;20010;-84
2023/07/09 08:34:09;;;;;;;1.73;1.50;;;;;;;26.75;82.84;98753.69;15304803;19;20097;-84
2023/07/09 08:39:37;;;;;;;1.63;1.40;;;;;;;27.08;72.46;98757.38;15301165;19;20035;-87
2023/07/09 08:45:20;;;;;;;3.45;1.40;;;;;;;27.37;72.18;98746.03;15301477;19;20011;-86
2023/07/09 08:50:51;;;;;;;1.45;1.27;;;;;;;27.63;64.85;98741.53;15323082;19;20018;-85
2023/07/09 08:56:20;;;;;;;1.35;1.25;;;;;;;27.87;63.76;98748.63;15312336;19;20022;-85
2023/07/09 09:01:55;;;;;;;1.65;1.25;;;;;;;28.20;59.35;98738.31;15320652;19;20015;-86
2023/07/09 09:07:27;;;;;;;1.40;1.30;;;;;;;28.48;59.64;98748.13;15311190;19;20035;-88
2023/07/09 09:13:06;;;;;;;4.72;1.20;;;;;;;28.72;61.98;98747.66;15328023;19;20018;-86
2023/07/09 09:18:46;;;;;;;2.75;1.30;;;;;;;29.00;64.61;98742.72;15304734;19;20022;-87
2023/07/09 09:24:19;;;;;;;2.28;1.30;;;;;;;29.31;58.61;98745.53;15305038;19;20011;-87
2023/07/09 09:29:48;;;;;;;1.65;1.20;;;;;;;29.47;56.28;98747.22;15313329;19;20027;-88
2023/07/09 09:35:19;;;;;;;1.63;1.27;;;;;;;29.70;54.15;98744.16;15332137;19;20358;-89
2023/07/09 09:40:45;;;;;;;1.40;1.30;;;;;;;29.85;53.26;98733.03;15303574;19;20047;-87
2023/07/09 09:46:23;;;;;;;3.15;1.50;;;;;;;30.09;59.66;98736.03;15303348;19;20017;-87
2023/07/09 09:51:56;;;;;;;1.42;1.23;;;;;;;30.18;58.37;98741.84;15309067;19;19999;-93
2023/07/09 09:57:25;;;;;;;5.25;1.48;;;;;;;30.36;57.61;98736.75;15296573;19;20020;-86
2023/07/09 10:02:52;;;;;;;2.55;1.30;;;;;;;30.48;56.77;98739.22;15303553;19;20043;-88
2023/07/09 10:08:26;;;;;;;2.58;1.20;;;;;;;30.61;53.23;98738.63;15300353;19;20018;-85
2023/07/09 10:13:54;;;;;;;1.90;1.30;;;;;;;30.78;53.42;98745.75;15292587;19;20035;-85
2023/07/09 10:19:32;;;;;;;2.97;1.33;;;;;;;31.00;50.76;98745.34;15281258;19;20054;-85
2023/07/09 10:25:06;;;;;;;2.05;1.30;;;;;;;31.15;49.39;98747.22;15277518;19;20015;-87
2023/07/09 10:30:44;;;;;;;1.52;1.30;;;;;;;31.18;46.18;98743.88;15285801;19;20019;-86
2023/07/09 10:36:22;;;;;;;1.85;1.10;;;;;;;31.32;47.79;98744.03;15277035;19;20343;-85
2023/07/09 10:41:48;;;;;;;3.13;1.20;;;;;;;31.42;46.65;98743.13;15278477;19;20085;-86
2023/07/09 10:47:19;;;;;;;3.90;1.35;;;;;;;31.63;46.89;98741.81;15272442;19;20010;-85
2023/07/09 10:52:52;;;;;;;1.40;1.23;;;;;;;31.79;43.84;98733.34;15313421;19;20010;-86
2023/07/09 10:58:31;;;;;;;2.13;1.13;;;;;;;31.86;43.97;98728.25;15295636;19;20018;-85
2023/07/09 11:04:02;;;;;;;1.90;1.23;;;;;;;31.95;44.08;98720.88;15291050;19;20051;-82
2023/07/09 11:09:36;;;;;;;2.97;1.20;;;;;;;32.22;44.88;98719.47;15304853;19;20539;-81
2023/07/09 11:15:04;;;;;;;2.78;1.38;;;;;;;32.45;44.09;98725.34;15308974;19;20542;-83
2023/07/09 11:20:42;;;;;;;3.03;1.20;;;;;;;32.58;44.47;98721.81;15296380;19;20017;-84
2023/07/09 11:26:16;;;;;;;2.42;1.13;;;;;;;32.69;44.60;98718.88;15298786;19;20511;-84
2023/07/09 11:31:48;;;;;;;1.25;1.15;;;;;;;32.84;43.94;98710.31;15304093;19;20031;-83
2023/07/09 11:37:15;;;;;;;2.00;1.10;;;;;;;33.04;43.42;98699.97;15304438;19;20022;-86
2023/07/09 11:42:55;;;;;;;2.92;1.23;;;;;;;33.20;43.31;98708.91;15303384;19;20374;-85
2023/07/09 11:48:27;;;;;;;2.88;1.23;;;;;;;33.28;42.26;98707.41;15309899;19;20006;-86
2023/07/09 11:53:57;;;;;;;1.30;1.20;;;;;;;33.41;42.83;98698.25;15295816;19;20019;-88
2023/07/09 12:05:09;;;;;;;3.38;1.13;;;;;;;33.55;42.11;98689.09;15299284;19;20353;-87
2023/07/09 12:10:47;;;;;;;1.88;1.10;;;;;;;33.62;42.37;98681.13;15306451;19;20021;-88
2023/07/09 12:22:21;;;;;;;3.22;1.20;;;;;;;34.16;41.33;98678.69;15298304;19;20359;-87
2023/07/09 12:27:46;;;;;;;1.35;1.10;;;;;;;34.39;42.41;98674.00;15291352;19;20051;-87
2023/07/09 12:39:00;;;;;;;2.08;1.20;;;;;;;34.87;39.11;98672.66;15301592;19;19995;-87
2023/07/09 12:44:30;;;;;;;1.30;1.15;;;;;;;34.96;39.12;98667.16;15298694;19;20027;-87
2023/07/09 12:50:30;;;;;;;1.67;1.00;;;;;;;35.17;37.92;98666.63;15302800;19;20035;-87
2023/07/09 12:56:26;;;;;;;3.40;1.02;;;;;;;35.22;38.30;98662.88;15297905;19;20107;-86
2023/07/09 13:02:07;;;;;;;3.13;1.30;;;;;;;35.36;37.69;98651.56;15302617;19;20010;-89
2023/07/09 13:07:35;;;;;;;2.45;1.20;;;;;;;35.49;36.63;98639.50;15302575;19;20053;-85
2023/07/09 13:13:26;;;;;;;2.45;1.10;;;;;;;35.53;37.64;98637.72;15310444;19;20090;-91
2023/07/09 13:19:24;;;;;;;1.45;1.10;;;;;;;35.81;36.85;98645.06;15303414;19;20014;-89
2023/07/09 13:30:31;;;;;;;2.15;1.10;;;;;;;36.30;36.36;98643.09;15259061;19;20468;-45
2023/07/09 13:35:57;;;;;;;1.85;1.15;;;;;;;36.57;36.06;98637.53;15263805;19;20039;-47
2023/07/09 13:41:22;;;;;;;1.50;0.90;;;;;;;36.75;35.63;98644.81;15269952;19;20013;-45
2023/07/09 13:46:51;;;;;;;2.35;1.20;;;;;;;36.92;34.63;98637.53;15265320;19;20085;-46
2023/07/09 13:52:20;;;;;;;1.77;1.10;;;;;;;37.09;34.89;98631.91;15265837;19;20021;-44
2023/07/09 13:57:44;;;;;;;1.98;1.10;;;;;;;37.31;35.04;98630.03;15262617;19;20078;-49
2023/07/09 14:03:18;;;;;;;2.72;1.00;;;;;;;37.64;35.35;98618.22;15265930;19;20025;-47
2023/07/09 14:08:42;;;;;;;2.88;1.10;;;;;;;37.75;34.76;98605.41;15265449;19;20015;-47
2023/07/09 14:14:18;;;;;;;1.55;1.02;;;;;;;37.85;33.44;98604.22;15260914;19;20030;-47
2023/07/09 14:19:46;;;;;;;1.50;0.98;;;;;;;37.92;33.20;98600.91;15264312;19;20018;-49
2023/07/09 14:25:18;;;;;;;3.67;1.20;;;;;;;38.13;32.25;98600.09;15260803;19;20459;-48
2023/07/09 14:30:50;;;;;;;1.58;1.20;;;;;;;38.29;32.42;98589.88;15267920;19;20014;-47
2023/07/09 14:36:18;;;;;;;1.83;1.30;;;;;;;38.40;31.43;98578.25;15261152;19;20014;-43
2023/07/09 14:41:43;;;;;;;2.45;1.23;;;;;;;38.55;32.54;98577.63;15267667;19;20018;-45
2023/07/09 14:47:24;;;;;;;1.90;1.17;;;;;;;38.58;31.41;98571.31;15275551;19;20028;-43
2023/07/09 14:52:54;;;;;;;2.22;1.17;;;;;;;38.59;32.51;98561.69;15278944;19;20023;-44
2023/07/09 14:58:21;;;;;;;2.85;1.30;;;;;;;38.74;31.89;98565.03;15279084;19;20018;-48
2023/07/09 15:03:46;;;;;;;2.97;1.10;;;;;;;38.56;31.76;98567.19;15271661;19;20011;-48
2023/07/09 15:09:13;;;;;;;1.77;1.13;;;;;;;38.68;31.53;98564.44;15278045;19;20015;-49
2023/07/09 15:14:39;;;;;;;2.03;1.10;;;;;;;38.82;31.72;98558.53;15278896;19;20019;-44
2023/07/09 15:20:04;;;;;;;3.10;1.05;;;;;;;39.04;31.27;98553.66;15276609;19;20031;-52
2023/07/09 15:25:33;;;;;;;1.90;1.00;;;;;;;39.17;31.62;98552.50;15273335;19;20239;-46
2023/07/09 15:30:57;;;;;;;;;;;;;;;39.28;30.42;98547.28;15281534;19;20010;-44
2023/07/09 15:36:23;;;;;;;1.70;1.10;;;;;;;39.22;30.99;98538.16;15275299;19;19967;-49
2023/07/09 15:41:52;;;;;;;2.13;1.10;;;;;;;39.20;31.36;98534.91;15273132;19;20014;-44
2023/07/09 15:47:36;;;;;;;2.72;1.30;;;;;;;39.21;30.87;98516.81;15290394;19;20034;-85
2023/07/09 15:53:01;;;;;;;1.70;1.10;;;;;;;39.35;30.37;98519.31;15303365;19;20415;-84
2023/07/09 15:58:38;;;;;;;1.40;0.90;;;;;;;39.39;31.14;98516.59;15305639;19;20022;-82
2023/07/09 16:04:08;;;;;;;1.45;1.05;;;;;;;39.22;30.40;98509.19;15357756;19;20010;-85
2023/07/09 16:09:33;;;;;;;1.55;1.17;;;;;;;39.15;31.15;98499.31;15288516;19;20006;-84
2023/07/09 16:15:03;;;;;;;2.22;1.10;;;;;;;39.03;30.03;98495.66;15290470;19;20018;-82
2023/07/09 16:20:38;;;;;;;1.75;1.10;;;;;;;38.78;31.09;98492.75;15288077;19;20018;-80
2023/07/09 16:25:56;;;;;;;2.30;1.30;;;;;;;38.75;31.49;98485.84;15292134;19;20016;-81
2023/07/09 16:31:23;;;;;;;4.30;1.23;;;;;;;38.58;31.79;98481.22;14778144;19;10000293;-81
2023/07/09 16:36:48;;;;;;;1.50;1.00;;;;;;;38.31;31.93;98477.00;15284591;19;20040;-79
2023/07/09 16:42:21;;;;;;;2.03;1.13;;;;;;;37.81;32.70;98489.97;15284336;19;20019;-80
2023/07/09 16:47:50;;;;;;;3.10;1.20;;;;;;;37.41;32.85;98494.81;15287718;19;20022;-80
2023/07/09 16:53:22;;;;;;;3.10;1.20;;;;;;;36.93;33.24;98485.56;15286483;19;20021;-79
2023/07/09 16:58:47;;;;;;;2.22;1.13;;;;;;;36.50;34.05;98492.09;15284665;19;20082;-80
2023/07/09 17:04:30;;;;;;;2.78;1.05;;;;;;;36.11;34.53;98508.78;15279277;19;20027;-80
2023/07/09 17:09:57;;;;;;;3.08;1.20;;;;;;;35.72;35.59;98514.16;15282789;19;20014;-80
2023/07/09 17:15:48;;;;;;;3.05;1.20;;;;;;;35.40;35.82;98512.53;15287287;19;20014;-79
2023/07/09 17:21:20;;;;;;;2.22;1.20;;;;;;;34.99;36.77;98506.94;15290884;19;20002;-81
2023/07/09 17:26:45;;;;;;;2.87;1.20;;;;;;;34.71;36.74;98506.25;15301843;19;20039;-80
2023/07/09 17:32:11;;;;;;;1.30;1.10;;;;;;;34.37;37.32;98516.03;15311978;19;20006;-79
2023/07/09 17:37:39;;;;;;;3.75;1.20;;;;;;;34.05;37.53;98509.53;15299683;19;20026;-80
2023/07/09 17:43:05;;;;;;;2.65;1.27;;;;;;;33.72;38.66;98516.09;15288457;19;20424;-78
2023/07/09 17:48:33;;;;;;;2.15;1.20;;;;;;;33.38;39.41;98508.97;15300842;19;20010;-79
2023/07/09 17:54:01;;;;;;;1.90;1.30;;;;;;;33.08;40.54;98514.03;15302901;19;20039;-78
2023/07/09 17:59:28;;;;;;;2.42;1.25;;;;;;;32.77;40.43;98511.75;15295686;19;20386;-78
2023/07/09 18:04:55;;;;;;;3.30;1.40;;;;;;;32.53;41.01;98501.56;15294498;19;20010;-78
2023/07/09 18:10:23;;;;;;;3.90;1.48;;;;;;;32.30;40.99;98503.34;15287396;19;20084;-79
2023/07/09 18:15:49;;;;;;;6.35;1.40;;;;;;;32.09;41.75;98497.22;15287479;19;20014;-80
2023/07/09 18:21:14;;;;;;;2.60;1.50;;;;;;;31.87;41.74;98500.63;15297896;19;20074;-78
2023/07/09 18:26:41;;;;;;;3.63;1.50;;;;;;;31.58;42.70;98494.00;15302257;19;20006;-77
2023/07/09 18:32:07;;;;;;;2.28;1.42;;;;;;;31.36;42.72;98487.03;15297105;19;20415;-76
2023/07/09 18:37:33;;;;;;;4.15;1.40;;;;;;;31.10;44.30;98489.28;15289782;19;20019;-79
2023/07/09 18:43:02;;;;;;;2.83;1.50;;;;;;;30.90;43.62;98496.72;15289983;19;20020;-77
2023/07/09 18:48:41;;;;;;;1.80;1.13;;;;;;;30.69;44.12;98501.66;15291957;19;20014;-75
2023/07/09 18:54:06;;;;;;;6.15;1.52;;;;;;;30.48;44.21;98494.59;15293890;19;20347;-76
2023/07/09 18:59:34;;;;;;;2.53;1.50;;;;;;;30.23;45.10;98488.94;15288526;19;20019;-77
2023/07/09 19:05:00;;;;;;;2.15;1.40;;;;;;;30.08;45.07;98487.09;15287267;19;20035;-78
2023/07/09 19:10:27;;;;;;;3.25;1.35;;;;;;;29.90;45.26;98479.44;15292081;19;20015;-78
2023/07/09 19:15:58;;;;;;;2.88;1.30;;;;;;;29.74;45.48;98482.28;15289440;19;20015;-77
2023/07/09 19:21:24;;;;;;;3.65;1.67;;;;;;;29.49;47.02;98474.94;15289636;19;20031;-76
2023/07/09 19:26:50;;;;;;;3.85;1.65;;;;;;;29.32;46.63;98475.25;15301625;19;20017;-79
2023/07/09 19:32:25;;;;;;;1.80;1.40;;;;;;;29.18;47.18;98475.88;15302946;19;20025;-77
2023/07/09 19:37:49;;;;;;;1.60;1.50;;;;;;;29.04;47.14;98472.88;15315851;19;20069;-76
2023/07/09 19:43:21;;;;;;;2.60;1.33;;;;;;;28.93;47.68;98473.97;15309459;19;20010;-78
2023/07/09 19:48:49;;;;;;;1.77;1.50;;;;;;;28.80;48.45;98467.09;15311144;19;20022;-79
2023/07/09 19:54:20;;;;;;;3.65;1.60;;;;;;;28.66;48.84;98488.16;15296888;19;20481;-77
2023/07/09 19:59:46;;;;;;;2.10;1.55;;;;;;;28.58;48.35;98490.38;15296309;19;20022;-78
2023/07/09 20:05:31;;;;;;;2.97;1.60;;;;;;;28.51;49.25;98489.00;15299650;19;20408;-78
2023/07/09 20:10:58;;;;;;;3.08;1.50;;;;;;;28.37;49.46;98488.72;15350374;19;20166;-75
2023/07/09 20:16:32;;;;;;;2.15;1.42;;;;;;;28.25;49.88;98486.22;15292615;19;20068;-75
2023/07/09 20:21:59;;;;;;;3.47;1.50;;;;;;;28.11;50.08;98495.06;15279916;19;20011;-76
2023/07/09 20:27:26;;;;;;;2.22;1.48;;;;;;;28.00;50.22;98496.13;15280790;19;20031;-76
2023/07/09 20:32:52;;;;;;;3.22;1.50;;;;;;;27.87;50.56;98482.84;15285582;19;20021;-78
2023/07/09 20:38:27;;;;;;;3.33;1.58;;;;;;;27.75;50.81;98488.63;15283616;19;20021;-78
2023/07/09 20:43:54;;;;;;;2.97;1.58;;;;;;;27.66;50.70;98493.84;15281761;19;20015;-77
2023/07/09 20:49:36;;;;;;;2.28;1.45;;;;;;;27.60;51.30;98493.00;15283182;19;20031;-76
2023/07/09 20:55:03;;;;;;;3.67;1.75;;;;;;;27.50;51.09;98488.28;15288348;19;20066;-78
2023/07/09 21:00:30;;;;;;;2.63;1.60;;;;;;;27.46;50.84;98497.38;15286116;19;20507;-77
2023/07/09 21:05:56;;;;;;;2.67;1.70;;;;;;;27.40;51.29;98492.88;15286499;19;20501;-77
2023/07/09 21:11:23;;;;;;;5.50;1.73;;;;;;;27.27;51.63;98500.56;15284067;19;20031;-75
2023/07/09 21:16:52;;;;;;;3.90;1.63;;;;;;;27.19;52.38;98503.88;15285043;19;20627;-77
2023/07/09 21:22:23;;;;;;;4.40;1.50;;;;;;;27.10;52.38;98511.84;15279854;19;20021;-78
2023/07/09 21:27:52;;;;;;;1.85;1.48;;;;;;;27.00;52.40;98506.25;15286765;19;20019;-78
2023/07/09 21:33:22;;;;;;;2.72;1.63;;;;;;;26.93;52.83;98514.78;15283772;19;20392;-78
2023/07/09 21:38:47;;;;;;;1.40;1.30;;;;;;;26.85;52.97;98505.03;15277825;19;20490;-76
2023/07/09 21:44:14;;;;;;;4.35;1.67;;;;;;;26.81;52.71;98503.09;15264462;19;20024;-40
2023/07/09 21:49:42;;;;;;;2.58;1.65;;;;;;;26.74;53.32;98500.50;15268306;19;20754;-42
2023/07/09 21:55:06;;;;;;;3.58;1.70;;;;;;;26.68;53.14;98504.34;15264754;19;20028;-41
2023/07/09 22:00:33;;;;;;;2.92;1.52;;;;;;;26.64;53.10;98514.25;15268025;19;20015;-41
2023/07/09 22:06:12;;;;;;;2.58;1.50;;;;;;;26.60;53.45;98513.97;15261650;19;20327;-42
2023/07/09 22:11:47;;;;;;;2.00;1.50;;;;;;;26.55;53.51;98502.84;15267311;19;20018;-43
2023/07/09 22:17:25;;;;;;;1.50;1.35;;;;;;;26.54;53.41;98506.72;15261024;19;20017;-44
2023/07/09 22:22:50;;;;;;;3.50;1.63;;;;;;;26.50;53.94;98498.13;15265831;19;20013;-43
2023/07/09 22:28:14;;;;;;;2.28;1.58;;;;;;;26.44;54.29;98494.50;15263816;19;20409;-47
2023/07/09 22:33:42;;;;;;;2.50;1.63;;;;;;;26.41;53.97;98499.72;15267362;19;20021;-40
2023/07/09 22:39:06;;;;;;;3.95;1.70;;;;;;;26.32;54.80;98485.56;15268787;19;20451;-40
2023/07/09 22:44:37;;;;;;;2.30;1.80;;;;;;;26.28;55.61;98474.19;15278286;19;20019;-40
2023/07/09 22:49:58;;;;;;;3.13;1.60;;;;;;;26.27;55.41;98485.53;15266731;19;20013;-40
2023/07/09 22:55:35;;;;;;;2.17;1.55;;;;;;;26.26;56.22;98492.97;15265557;19;20014;-40
2023/07/09 23:01:03;;;;;;;4.47;1.45;;;;;;;26.26;55.61;98494.91;15262595;19;20025;-40
2023/07/09 23:06:31;;;;;;;2.05;1.55;;;;;;;26.27;57.82;98491.88;15274759;19;20021;-40
2023/07/09 23:11:55;;;;;;;2.88;1.52;;;;;;;26.21;58.02;98494.84;15283068;19;20025;-40
2023/07/09 23:17:20;;;;;;;3.30;1.52;;;;;;;26.15;59.06;98488.44;15275955;19;20369;-41
2023/07/09 23:22:47;;;;;;;1.73;1.50;;;;;;;26.11;60.88;98485.38;15277057;19;20023;-40
2023/07/09 23:28:15;;;;;;;1.83;1.50;;;;;;;26.07;59.51;98489.72;15278933;19;20014;-40
2023/07/09 23:33:42;;;;;;;2.38;1.70;;;;;;;25.97;59.60;98508.94;15278877;19;20014;-40
2023/07/09 23:39:11;;;;;;;6.13;1.77;;;;;;;25.71;59.66;98525.22;15279378;19;20021;-41
2023/07/09 23:44:42;;;;;;;3.75;1.55;;;;;;;25.77;60.38;98524.19;15273393;19;20018;-41
2023/07/09 23:50:13;;;;;;;6.00;1.70;;;;;;;25.69;62.75;98535.69;15277994;19;20042;-41
2023/07/09 23:55:40;;;;;;;;;;;;;;;25.60;65.54;98518.75;15274071;19;20018;-42
